sensor_id;sensor_type;location;lat;lon;timestamp;pressure;altitude;pressure_sealevel;temperature;humidity
23166;BME280;11751;42.700;24.170;2022-12-10T00:02:06;93456.97;;;5.98;100.00
23166;BME280;11751;42.700;24.170;2022-12-10T00:04:31;93456.28;;;5.85;100.00
23166;BME280;11751;42.700;24.170;2022-12-10T00:06:57;93459.88;;;5.93;100.00
23166;BME280;11751;42.700;24.170;2022-12-10T00:09:22;93458.25;;;5.97;100.00
23166;BME280;11751;42.700;24.170;2022-12-10T00:11:48;93464.53;;;5.77;100.00
23166;BME280;11751;42.700;24.170;2022-12-10T00:14:14;93465.19;;;5.70;100.00
23166;BME280;11751;42.700;24.170;2022-12-10T00:16:40;93452.09;;;5.91;100.00
23166;BME280;11751;42.700;24.170;2022-12-10T00:19:06;93455.47;;;5.97;100.00
23166;BME280;11751;42.700;24.170;2022-12-10T00:21:33;93457.53;;;5.96;100.00
23166;BME280;11751;42.700;24.170;2022-12-10T00:24:00;93457.69;;;5.98;100.00
23166;BME280;11751;42.700;24.170;2022-12-10T00:26:31;93458.47;;;5.99;100.00
23166;BME280;11751;42.700;24.170;2022-12-10T00:28:57;93465.91;;;6.04;100.00
23166;BME280;11751;42.700;24.170;2022-12-10T00:31:25;93447.34;;;5.99;100.00
23166;BME280;11751;42.700;24.170;2022-12-10T00:33:56;93450.72;;;6.05;100.00
23166;BME280;11751;42.700;24.170;2022-12-10T00:36:27;93448.16;;;6.07;100.00
23166;BME280;11751;42.700;24.170;2022-12-10T00:38:53;93455.06;;;5.93;100.00
23166;BME280;11751;42.700;24.170;2022-12-10T00:41:19;93432.91;;;6.00;100.00
23166;BME280;11751;42.700;24.170;2022-12-10T00:43:46;93436.22;;;5.99;100.00
23166;BME280;11751;42.700;24.170;2022-12-10T00:46:13;93422.34;;;5.79;100.00
23166;BME280;11751;42.700;24.170;2022-12-10T00:48:38;93425.09;;;5.58;100.00
23166;BME280;11751;42.700;24.170;2022-12-10T00:51:10;93424.91;;;5.43;100.00
23166;BME280;11751;42.700;24.170;2022-12-10T00:53:37;93408.38;;;5.17;100.00
23166;BME280;11751;42.700;24.170;2022-12-10T00:56:03;93410.06;;;5.54;100.00
23166;BME280;11751;42.700;24.170;2022-12-10T00:58:31;93403.13;;;5.47;100.00
23166;BME280;11751;42.700;24.170;2022-12-10T01:01:15;93408.22;;;5.56;100.00
23166;BME280;11751;42.700;24.170;2022-12-10T01:03:42;93410.31;;;5.63;100.00
23166;BME280;11751;42.700;24.170;2022-12-10T01:06:09;93407.75;;;5.65;100.00
23166;BME280;11751;42.700;24.170;2022-12-10T01:08:36;93405.13;;;5.80;100.00
23166;BME280;11751;42.700;24.170;2022-12-10T01:11:01;93408.50;;;5.86;100.00
23166;BME280;11751;42.700;24.170;2022-12-10T01:13:27;93407.22;;;5.87;100.00
23166;BME280;11751;42.700;24.170;2022-12-10T01:15:52;93416.84;;;5.86;100.00
23166;BME280;11751;42.700;24.170;2022-12-10T01:18:17;93414.56;;;5.77;100.00
23166;BME280;11751;42.700;24.170;2022-12-10T01:20:43;93403.69;;;5.66;100.00
23166;BME280;11751;42.700;24.170;2022-12-10T01:23:08;93410.72;;;5.67;100.00
23166;BME280;11751;42.700;24.170;2022-12-10T01:25:33;93416.34;;;5.75;100.00
23166;BME280;11751;42.700;24.170;2022-12-10T01:27:59;93422.41;;;5.86;100.00
23166;BME280;11751;42.700;24.170;2022-12-10T01:30:24;93420.84;;;5.78;100.00
23166;BME280;11751;42.700;24.170;2022-12-10T01:32:50;93423.00;;;5.72;100.00
23166;BME280;11751;42.700;24.170;2022-12-10T01:35:15;93419.66;;;5.73;100.00
23166;BME280;11751;42.700;24.170;2022-12-10T01:37:40;93412.28;;;5.76;100.00
23166;BME280;11751;42.700;24.170;2022-12-10T01:40:06;93413.81;;;5.77;100.00
23166;BME280;11751;42.700;24.170;2022-12-10T01:42:32;93410.50;;;5.78;100.00
23166;BME280;11751;42.700;24.170;2022-12-10T01:45:01;93423.09;;;5.79;100.00
23166;BME280;11751;42.700;24.170;2022-12-10T01:47:26;93427.47;;;5.75;100.00
23166;BME280;11751;42.700;24.170;2022-12-10T01:49:52;93426.31;;;5.70;100.00
23166;BME280;11751;42.700;24.170;2022-12-10T01:52:18;93410.34;;;5.84;100.00
23166;BME280;11751;42.700;24.170;2022-12-10T01:54:45;93413.03;;;5.76;100.00
23166;BME280;11751;42.700;24.170;2022-12-10T01:57:20;93411.28;;;5.86;100.00
23166;BME280;11751;42.700;24.170;2022-12-10T01:59:49;93408.31;;;5.84;100.00
23166;BME280;11751;42.700;24.170;2022-12-10T02:02:41;93423.63;;;5.98;100.00
23166;BME280;11751;42.700;24.170;2022-12-10T02:05:29;93416.16;;;5.93;100.00
23166;BME280;11751;42.700;24.170;2022-12-10T02:08:08;93423.84;;;6.00;100.00
23166;BME280;11751;42.700;24.170;2022-12-10T02:13:41;93409.94;;;6.00;100.00
23166;BME280;11751;42.700;24.170;2022-12-10T02:19:28;93416.78;;;5.99;100.00
23166;BME280;11751;42.700;24.170;2022-12-10T02:22:00;93420.91;;;5.85;100.00
23166;BME280;11751;42.700;24.170;2022-12-10T02:24:30;93418.13;;;5.85;100.00
23166;BME280;11751;42.700;24.170;2022-12-10T02:29:35;93418.06;;;5.98;100.00
23166;BME280;11751;42.700;24.170;2022-12-10T02:32:05;93407.91;;;5.80;100.00
23166;BME280;11751;42.700;24.170;2022-12-10T02:34:35;93391.72;;;5.92;100.00
23166;BME280;11751;42.700;24.170;2022-12-10T02:37:06;93393.63;;;5.96;100.00
23166;BME280;11751;42.700;24.170;2022-12-10T02:39:38;93390.69;;;6.02;100.00
23166;BME280;11751;42.700;24.170;2022-12-10T02:42:06;93396.44;;;6.04;100.00
23166;BME280;11751;42.700;24.170;2022-12-10T02:44:34;93386.50;;;6.16;100.00
23166;BME280;11751;42.700;24.170;2022-12-10T02:47:02;93384.94;;;6.28;100.00
23166;BME280;11751;42.700;24.170;2022-12-10T02:49:29;93381.66;;;6.37;100.00
23166;BME280;11751;42.700;24.170;2022-12-10T02:51:55;93379.75;;;6.32;100.00
23166;BME280;11751;42.700;24.170;2022-12-10T02:54:43;93381.09;;;6.38;100.00
23166;BME280;11751;42.700;24.170;2022-12-10T03:05:46;93365.41;;;6.48;100.00
23166;BME280;11751;42.700;24.170;2022-12-10T03:08:28;93364.66;;;6.48;100.00
23166;BME280;11751;42.700;24.170;2022-12-10T03:13:51;93358.84;;;6.31;100.00
23166;BME280;11751;42.700;24.170;2022-12-10T03:16:20;93358.44;;;6.27;100.00
23166;BME280;11751;42.700;24.170;2022-12-10T03:18:50;93356.84;;;6.39;100.00
23166;BME280;11751;42.700;24.170;2022-12-10T03:21:18;93359.09;;;6.48;100.00
23166;BME280;11751;42.700;24.170;2022-12-10T03:23:46;93369.47;;;6.47;100.00
23166;BME280;11751;42.700;24.170;2022-12-10T03:26:12;93373.38;;;6.44;100.00
23166;BME280;11751;42.700;24.170;2022-12-10T03:28:49;93375.00;;;6.40;100.00
23166;BME280;11751;42.700;24.170;2022-12-10T03:31:16;93372.22;;;6.40;100.00
23166;BME280;11751;42.700;24.170;2022-12-10T03:33:44;93368.53;;;6.45;100.00
23166;BME280;11751;42.700;24.170;2022-12-10T03:36:11;93365.44;;;6.56;100.00
23166;BME280;11751;42.700;24.170;2022-12-10T03:38:38;93356.53;;;6.50;100.00
23166;BME280;11751;42.700;24.170;2022-12-10T03:41:05;93364.25;;;6.44;100.00
23166;BME280;11751;42.700;24.170;2022-12-10T03:43:30;93379.06;;;6.39;100.00
23166;BME280;11751;42.700;24.170;2022-12-10T03:45:56;93373.88;;;6.43;100.00
23166;BME280;11751;42.700;24.170;2022-12-10T03:48:21;93379.28;;;6.41;100.00
23166;BME280;11751;42.700;24.170;2022-12-10T03:50:47;93375.31;;;6.29;100.00
23166;BME280;11751;42.700;24.170;2022-12-10T03:53:12;93373.88;;;6.43;100.00
23166;BME280;11751;42.700;24.170;2022-12-10T03:55:37;93383.22;;;6.53;100.00
23166;BME280;11751;42.700;24.170;2022-12-10T03:58:03;93383.81;;;6.59;100.00
23166;BME280;11751;42.700;24.170;2022-12-10T04:00:29;93379.94;;;6.62;100.00
23166;BME280;11751;42.700;24.170;2022-12-10T04:02:54;93380.69;;;6.62;100.00
23166;BME280;11751;42.700;24.170;2022-12-10T04:05:19;93384.03;;;6.68;100.00
23166;BME280;11751;42.700;24.170;2022-12-10T04:07:45;93371.38;;;6.52;100.00
23166;BME280;11751;42.700;24.170;2022-12-10T04:10:10;93376.97;;;6.60;100.00
23166;BME280;11751;42.700;24.170;2022-12-10T04:12:36;93366.84;;;6.42;100.00
23166;BME280;11751;42.700;24.170;2022-12-10T04:15:01;93370.72;;;6.39;100.00
23166;BME280;11751;42.700;24.170;2022-12-10T04:17:45;93374.91;;;6.25;100.00
23166;BME280;11751;42.700;24.170;2022-12-10T04:20:10;93379.06;;;6.39;100.00
23166;BME280;11751;42.700;24.170;2022-12-10T04:22:56;93377.06;;;6.47;100.00
23166;BME280;11751;42.700;24.170;2022-12-10T04:25:40;93370.28;;;6.55;100.00
23166;BME280;11751;42.700;24.170;2022-12-10T04:28:24;93374.34;;;6.62;100.00
23166;BME280;11751;42.700;24.170;2022-12-10T04:30:50;93371.41;;;6.60;100.00
23166;BME280;11751;42.700;24.170;2022-12-10T04:33:16;93379.94;;;6.62;100.00
23166;BME280;11751;42.700;24.170;2022-12-10T04:35:41;93380.91;;;6.72;100.00
23166;BME280;11751;42.700;24.170;2022-12-10T04:38:07;93371.00;;;6.56;100.00
23166;BME280;11751;42.700;24.170;2022-12-10T04:40:32;93376.78;;;6.58;100.00
23166;BME280;11751;42.700;24.170;2022-12-10T04:42:58;93369.91;;;6.59;100.00
23166;BME280;11751;42.700;24.170;2022-12-10T04:45:23;93376.41;;;6.61;100.00
23166;BME280;11751;42.700;24.170;2022-12-10T04:47:48;93371.06;;;6.71;100.00
23166;BME280;11751;42.700;24.170;2022-12-10T04:50:14;93351.78;;;6.73;100.00
23166;BME280;11751;42.700;24.170;2022-12-10T04:52:39;93355.53;;;6.75;100.00
23166;BME280;11751;42.700;24.170;2022-12-10T04:55:05;93358.47;;;6.70;100.00
23166;BME280;11751;42.700;24.170;2022-12-10T04:57:31;93351.78;;;6.73;100.00
23166;BME280;11751;42.700;24.170;2022-12-10T04:59:56;93346.59;;;6.69;100.00
23166;BME280;11751;42.700;24.170;2022-12-10T05:02:21;93346.44;;;6.75;100.00
23166;BME280;11751;42.700;24.170;2022-12-10T05:04:48;93351.59;;;6.71;100.00
23166;BME280;11751;42.700;24.170;2022-12-10T05:07:14;93349.97;;;6.75;100.00
23166;BME280;11751;42.700;24.170;2022-12-10T05:09:39;93340.47;;;6.71;100.00
23166;BME280;11751;42.700;24.170;2022-12-10T05:12:05;93344.72;;;6.72;100.00
23166;BME280;11751;42.700;24.170;2022-12-10T05:14:30;93364.09;;;6.84;100.00
23166;BME280;11751;42.700;24.170;2022-12-10T05:16:55;93370.75;;;6.81;100.00
23166;BME280;11751;42.700;24.170;2022-12-10T05:19:21;93363.34;;;6.84;100.00
23166;BME280;11751;42.700;24.170;2022-12-10T05:21:48;93352.22;;;6.91;100.00
23166;BME280;11751;42.700;24.170;2022-12-10T05:24:33;93354.84;;;6.89;100.00
23166;BME280;11751;42.700;24.170;2022-12-10T05:26:58;93360.41;;;6.89;100.00
23166;BME280;11751;42.700;24.170;2022-12-10T05:29:24;93363.59;;;7.01;100.00
23166;BME280;11751;42.700;24.170;2022-12-10T05:31:50;93375.66;;;7.03;100.00
23166;BME280;11751;42.700;24.170;2022-12-10T05:34:15;93374.19;;;7.10;100.00
23166;BME280;11751;42.700;24.170;2022-12-10T05:36:40;93364.16;;;6.99;100.00
23166;BME280;11751;42.700;24.170;2022-12-10T05:39:06;93355.00;;;6.91;100.00
23166;BME280;11751;42.700;24.170;2022-12-10T05:41:35;93355.94;;;6.86;100.00
23166;BME280;11751;42.700;24.170;2022-12-10T05:44:01;93348.19;;;7.00;100.00
23166;BME280;11751;42.700;24.170;2022-12-10T05:46:30;93355.97;;;7.01;100.00
23166;BME280;11751;42.700;24.170;2022-12-10T05:48:57;93344.69;;;6.99;100.00
23166;BME280;11751;42.700;24.170;2022-12-10T05:51:25;93357.88;;;7.06;100.00
23166;BME280;11751;42.700;24.170;2022-12-10T05:53:51;93359.28;;;6.92;100.00
23166;BME280;11751;42.700;24.170;2022-12-10T05:56:19;93349.63;;;6.86;100.00
23166;BME280;11751;42.700;24.170;2022-12-10T05:58:47;93356.09;;;6.81;100.00
23166;BME280;11751;42.700;24.170;2022-12-10T06:01:18;93355.41;;;6.95;100.00
23166;BME280;11751;42.700;24.170;2022-12-10T06:03:44;93353.03;;;6.99;100.00
23166;BME280;11751;42.700;24.170;2022-12-10T06:06:10;93364.16;;;6.99;100.00
23166;BME280;11751;42.700;24.170;2022-12-10T06:08:36;93352.28;;;6.99;100.00
23166;BME280;11751;42.700;24.170;2022-12-10T06:11:03;93346.38;;;7.10;100.00
23166;BME280;11751;42.700;24.170;2022-12-10T06:13:28;93344.16;;;7.16;100.00
23166;BME280;11751;42.700;24.170;2022-12-10T06:15:54;93354.94;;;7.19;100.00
23166;BME280;11751;42.700;24.170;2022-12-10T06:18:20;93340.81;;;7.17;100.00
23166;BME280;11751;42.700;24.170;2022-12-10T06:20:46;93344.91;;;7.16;100.00
23166;BME280;11751;42.700;24.170;2022-12-10T06:23:12;93352.72;;;7.25;100.00
23166;BME280;11751;42.700;24.170;2022-12-10T06:25:38;93348.66;;;7.26;100.00
23166;BME280;11751;42.700;24.170;2022-12-10T06:28:04;93349.00;;;7.23;100.00
23166;BME280;11751;42.700;24.170;2022-12-10T06:30:29;93342.16;;;7.24;100.00
23166;BME280;11751;42.700;24.170;2022-12-10T06:32:55;93354.00;;;7.24;100.00
23166;BME280;11751;42.700;24.170;2022-12-10T06:35:20;93358.69;;;7.37;100.00
23166;BME280;11751;42.700;24.170;2022-12-10T06:37:46;93356.63;;;7.45;100.00
23166;BME280;11751;42.700;24.170;2022-12-10T06:40:11;93360.56;;;7.42;100.00
23166;BME280;11751;42.700;24.170;2022-12-10T06:42:37;93356.84;;;7.54;100.00
23166;BME280;11751;42.700;24.170;2022-12-10T06:45:02;93369.50;;;7.63;100.00
23166;BME280;11751;42.700;24.170;2022-12-10T06:47:28;93369.13;;;7.66;100.00
23166;BME280;11751;42.700;24.170;2022-12-10T06:49:53;93359.84;;;7.63;100.00
23166;BME280;11751;42.700;24.170;2022-12-10T06:52:18;93362.44;;;7.69;100.00
23166;BME280;11751;42.700;24.170;2022-12-10T06:54:44;93358.75;;;7.81;100.00
23166;BME280;11751;42.700;24.170;2022-12-10T06:57:09;93357.63;;;7.77;100.00
23166;BME280;11751;42.700;24.170;2022-12-10T06:59:35;93365.63;;;7.88;100.00
23166;BME280;11751;42.700;24.170;2022-12-10T07:02:00;93355.75;;;7.94;100.00
23166;BME280;11751;42.700;24.170;2022-12-10T07:04:26;93357.81;;;8.01;100.00
23166;BME280;11751;42.700;24.170;2022-12-10T07:06:52;93363.56;;;8.11;100.00
23166;BME280;11751;42.700;24.170;2022-12-10T07:09:17;93347.97;;;8.15;100.00
23166;BME280;11751;42.700;24.170;2022-12-10T07:11:43;93333.84;;;8.21;100.00
23166;BME280;11751;42.700;24.170;2022-12-10T07:14:13;93341.28;;;8.26;100.00
23166;BME280;11751;42.700;24.170;2022-12-10T07:16:39;93342.94;;;8.29;100.00
23166;BME280;11751;42.700;24.170;2022-12-10T07:19:04;93350.91;;;8.32;100.00
23166;BME280;11751;42.700;24.170;2022-12-10T07:21:33;93350.72;;;8.38;100.00
23166;BME280;11751;42.700;24.170;2022-12-10T07:24:04;93359.47;;;8.42;100.00
23166;BME280;11751;42.700;24.170;2022-12-10T07:26:32;93355.75;;;8.39;100.00
23166;BME280;11751;42.700;24.170;2022-12-10T07:28:59;93359.84;;;8.46;100.00
23166;BME280;11751;42.700;24.170;2022-12-10T07:31:25;93357.25;;;8.03;100.00
23166;BME280;11751;42.700;24.170;2022-12-10T07:33:52;93350.56;;;7.91;100.00
23166;BME280;11751;42.700;24.170;2022-12-10T07:36:19;93340.91;;;7.99;100.00
23166;BME280;11751;42.700;24.170;2022-12-10T07:38:44;93340.34;;;8.01;100.00
23166;BME280;11751;42.700;24.170;2022-12-10T07:41:11;93343.13;;;8.01;100.00
23166;BME280;11751;42.700;24.170;2022-12-10T07:43:39;93348.50;;;8.06;100.00
23166;BME280;11751;42.700;24.170;2022-12-10T07:46:10;93356.50;;;8.10;100.00
23166;BME280;11751;42.700;24.170;2022-12-10T07:48:37;93335.13;;;8.12;100.00
23166;BME280;11751;42.700;24.170;2022-12-10T07:51:03;93330.66;;;8.24;100.00
23166;BME280;11751;42.700;24.170;2022-12-10T07:53:29;93339.41;;;8.36;100.00
23166;BME280;11751;42.700;24.170;2022-12-10T07:55:54;93337.19;;;8.27;100.00
23166;BME280;11751;42.700;24.170;2022-12-10T07:58:20;93335.69;;;8.11;100.00
23166;BME280;11751;42.700;24.170;2022-12-10T08:00:45;93344.59;;;8.02;100.00
23166;BME280;11751;42.700;24.170;2022-12-10T08:03:11;93347.59;;;8.34;100.00
23166;BME280;11751;42.700;24.170;2022-12-10T08:05:36;93355.72;;;8.54;100.00
23166;BME280;11751;42.700;24.170;2022-12-10T08:08:02;93353.25;;;8.73;100.00
23166;BME280;11751;42.700;24.170;2022-12-10T08:10:27;93353.41;;;8.82;100.00
23166;BME280;11751;42.700;24.170;2022-12-10T08:12:53;93349.84;;;8.89;100.00
23166;BME280;11751;42.700;24.170;2022-12-10T08:15:18;93342.94;;;8.98;100.00
23166;BME280;11751;42.700;24.170;2022-12-10T08:17:43;93337.31;;;9.05;100.00
23166;BME280;11751;42.700;24.170;2022-12-10T08:20:09;93327.69;;;8.91;100.00
23166;BME280;11751;42.700;24.170;2022-12-10T08:22:35;93323.19;;;9.03;100.00
23166;BME280;11751;42.700;24.170;2022-12-10T08:25:01;93329.09;;;9.07;100.00
23166;BME280;11751;42.700;24.170;2022-12-10T08:27:26;93319.78;;;9.12;100.00
23166;BME280;11751;42.700;24.170;2022-12-10T08:29:52;93307.41;;;9.23;100.00
23166;BME280;11751;42.700;24.170;2022-12-10T08:32:17;93305.03;;;9.19;100.00
23166;BME280;11751;42.700;24.170;2022-12-10T08:34:42;93307.75;;;9.34;100.00
23166;BME280;11751;42.700;24.170;2022-12-10T08:37:08;93299.91;;;9.32;100.00
23166;BME280;11751;42.700;24.170;2022-12-10T08:39:33;93292.09;;;9.31;100.00
23166;BME280;11751;42.700;24.170;2022-12-10T08:41:59;93303.03;;;9.44;100.00
23166;BME280;11751;42.700;24.170;2022-12-10T08:44:24;93299.06;;;9.47;100.00
23166;BME280;11751;42.700;24.170;2022-12-10T08:46:50;93302.84;;;9.42;100.00
23166;BME280;11751;42.700;24.170;2022-12-10T08:49:15;93290.06;;;9.56;100.00
23166;BME280;11751;42.700;24.170;2022-12-10T08:51:41;93291.63;;;9.74;100.00
23166;BME280;11751;42.700;24.170;2022-12-10T08:54:06;93299.47;;;9.92;100.00
23166;BME280;11751;42.700;24.170;2022-12-10T08:56:32;93287.78;;;10.11;100.00
23166;BME280;11751;42.700;24.170;2022-12-10T08:58:57;93275.78;;;10.18;100.00
23166;BME280;11751;42.700;24.170;2022-12-10T09:01:23;93274.53;;;10.28;100.00
23166;BME280;11751;42.700;24.170;2022-12-10T09:03:48;93270.88;;;10.42;100.00
23166;BME280;11751;42.700;24.170;2022-12-10T09:06:17;93260.00;;;10.46;100.00
23166;BME280;11751;42.700;24.170;2022-12-10T09:08:43;93264.63;;;10.51;100.00
23166;BME280;11751;42.700;24.170;2022-12-10T09:11:18;93270.69;;;10.57;100.00
23166;BME280;11751;42.700;24.170;2022-12-10T09:13:44;93278.59;;;10.68;100.00
23166;BME280;11751;42.700;24.170;2022-12-10T09:16:10;93266.25;;;10.71;100.00
23166;BME280;11751;42.700;24.170;2022-12-10T09:18:35;93252.31;;;10.81;100.00
23166;BME280;11751;42.700;24.170;2022-12-10T09:21:05;93256.00;;;10.83;100.00
23166;BME280;11751;42.700;24.170;2022-12-10T09:23:31;93251.38;;;10.95;100.00
23166;BME280;11751;42.700;24.170;2022-12-10T09:25:56;93237.75;;;11.08;100.00
23166;BME280;11751;42.700;24.170;2022-12-10T09:28:22;93237.66;;;11.16;100.00
23166;BME280;11751;42.700;24.170;2022-12-10T09:30:58;93238.19;;;11.05;100.00
23166;BME280;11751;42.700;24.170;2022-12-10T09:33:24;93236.44;;;11.09;100.00
23166;BME280;11751;42.700;24.170;2022-12-10T09:35:50;93222.63;;;11.21;100.00
23166;BME280;11751;42.700;24.170;2022-12-10T09:38:15;93211.56;;;11.49;100.00
23166;BME280;11751;42.700;24.170;2022-12-10T09:40:59;93220.94;;;11.61;100.00
23166;BME280;11751;42.700;24.170;2022-12-10T09:46:31;93193.72;;;11.99;100.00
23166;BME280;11751;42.700;24.170;2022-12-10T09:51:38;93180.75;;;12.13;100.00
23166;BME280;11751;42.700;24.170;2022-12-10T09:54:26;93180.00;;;12.03;100.00
23166;BME280;11751;42.700;24.170;2022-12-10T09:56:54;93159.34;;;12.27;100.00
23166;BME280;11751;42.700;24.170;2022-12-10T10:04:36;93155.19;;;12.57;100.00
23166;BME280;11751;42.700;24.170;2022-12-10T10:07:03;93149.00;;;12.49;100.00
23166;BME280;11751;42.700;24.170;2022-12-10T10:09:40;93148.69;;;12.54;100.00
23166;BME280;11751;42.700;24.170;2022-12-10T10:12:13;93145.09;;;12.82;100.00
23166;BME280;11751;42.700;24.170;2022-12-10T10:14:41;93144.69;;;12.95;100.00
23166;BME280;11751;42.700;24.170;2022-12-10T10:17:40;93153.84;;;12.86;100.00
23166;BME280;11751;42.700;24.170;2022-12-10T10:20:09;93163.44;;;12.92;100.00
23166;BME280;11751;42.700;24.170;2022-12-10T10:22:35;93161.53;;;12.95;100.00
23166;BME280;11751;42.700;24.170;2022-12-10T10:25:00;93151.72;;;13.05;100.00
23166;BME280;11751;42.700;24.170;2022-12-10T10:27:29;93143.75;;;13.02;100.00
23166;BME280;11751;42.700;24.170;2022-12-10T10:29:58;93143.88;;;13.13;100.00
23166;BME280;11751;42.700;24.170;2022-12-10T10:32:26;93140.72;;;13.28;100.00
23166;BME280;11751;42.700;24.170;2022-12-10T10:34:55;93123.31;;;13.20;100.00
23166;BME280;11751;42.700;24.170;2022-12-10T10:37:29;93145.66;;;13.49;100.00
23166;BME280;11751;42.700;24.170;2022-12-10T10:39:56;93135.88;;;13.50;100.00
23166;BME280;11751;42.700;24.170;2022-12-10T10:42:35;93135.47;;;13.74;100.00
23166;BME280;11751;42.700;24.170;2022-12-10T10:45:03;93112.25;;;13.94;100.00
23166;BME280;11751;42.700;24.170;2022-12-10T10:47:32;93124.41;;;13.87;98.40
23166;BME280;11751;42.700;24.170;2022-12-10T10:49:58;93117.47;;;14.09;97.86
23166;BME280;11751;42.700;24.170;2022-12-10T10:52:28;93123.38;;;14.34;97.02
23166;BME280;11751;42.700;24.170;2022-12-10T10:54:54;93117.63;;;14.32;97.17
23166;BME280;11751;42.700;24.170;2022-12-10T10:59:51;93108.97;;;14.72;94.11
23166;BME280;11751;42.700;24.170;2022-12-10T11:02:25;93104.56;;;14.80;94.13
23166;BME280;11751;42.700;24.170;2022-12-10T11:04:55;93098.97;;;14.92;93.00
23166;BME280;11751;42.700;24.170;2022-12-10T11:09:53;93084.97;;;15.38;92.21
23166;BME280;11751;42.700;24.170;2022-12-10T11:12:40;93086.81;;;15.44;91.26
23166;BME280;11751;42.700;24.170;2022-12-10T11:17:52;93085.69;;;15.72;89.28
23166;BME280;11751;42.700;24.170;2022-12-10T11:22:57;93071.63;;;16.20;89.35
23166;BME280;11751;42.700;24.170;2022-12-10T11:36:46;93055.75;;;16.88;83.75
23166;BME280;11751;42.700;24.170;2022-12-10T11:45:41;93031.75;;;16.89;80.54
23166;BME280;11751;42.700;24.170;2022-12-10T11:56:22;93019.81;;;16.90;80.35
23166;BME280;11751;42.700;24.170;2022-12-10T12:07:19;93006.91;;;16.74;79.57
23166;BME280;11751;42.700;24.170;2022-12-10T12:12:47;93005.53;;;16.50;80.92
23166;BME280;11751;42.700;24.170;2022-12-10T12:15:27;92993.84;;;16.55;80.73
23166;BME280;11751;42.700;24.170;2022-12-10T12:18:26;92994.34;;;16.52;79.89
23166;BME280;11751;42.700;24.170;2022-12-10T12:20:59;92990.44;;;16.21;80.10
23166;BME280;11751;42.700;24.170;2022-12-10T12:23:45;92992.19;;;16.14;81.48
23166;BME280;11751;42.700;24.170;2022-12-10T12:28:47;92982.09;;;16.11;82.57
23166;BME280;11751;42.700;24.170;2022-12-10T12:31:29;92978.91;;;16.17;83.03
23166;BME280;11751;42.700;24.170;2022-12-10T12:34:18;92980.03;;;16.12;82.98
23166;BME280;11751;42.700;24.170;2022-12-10T12:36:46;92978.94;;;16.05;82.86
23166;BME280;11751;42.700;24.170;2022-12-10T12:47:32;92973.31;;;16.05;81.72
23166;BME280;11751;42.700;24.170;2022-12-10T12:50:01;92972.38;;;15.89;81.97
23166;BME280;11751;42.700;24.170;2022-12-10T12:52:37;92975.13;;;15.76;82.49
23166;BME280;11751;42.700;24.170;2022-12-10T12:55:15;92963.84;;;15.64;82.31
23166;BME280;11751;42.700;24.170;2022-12-10T12:57:53;92969.41;;;15.51;81.96
23166;BME280;11751;42.700;24.170;2022-12-10T13:00:21;92976.94;;;15.35;83.54
23166;BME280;11751;42.700;24.170;2022-12-10T13:03:22;92963.44;;;15.34;83.68
23166;BME280;11751;42.700;24.170;2022-12-10T13:05:50;92965.13;;;15.16;84.23
23166;BME280;11751;42.700;24.170;2022-12-10T13:13:40;92979.00;;;15.12;86.13
23166;BME280;11751;42.700;24.170;2022-12-10T13:48:58;92952.16;;;14.76;89.89
23166;BME280;11751;42.700;24.170;2022-12-10T13:51:30;92952.66;;;14.73;90.58
23166;BME280;11751;42.700;24.170;2022-12-10T13:54:27;92949.72;;;14.71;91.13
23166;BME280;11751;42.700;24.170;2022-12-10T13:59:40;92932.06;;;14.59;91.68
23166;BME280;11751;42.700;24.170;2022-12-10T14:02:45;92945.00;;;14.41;92.64
23166;BME280;11751;42.700;24.170;2022-12-10T14:07:39;92943.03;;;14.32;93.23
23166;BME280;11751;42.700;24.170;2022-12-10T14:10:13;92938.59;;;14.18;93.78
23166;BME280;11751;42.700;24.170;2022-12-10T14:12:41;92930.88;;;14.18;93.84
23166;BME280;11751;42.700;24.170;2022-12-10T14:15:20;92914.97;;;14.11;93.79
23166;BME280;11751;42.700;24.170;2022-12-10T14:17:49;92927.94;;;14.16;93.04
23166;BME280;11751;42.700;24.170;2022-12-10T14:20:23;92917.78;;;14.23;92.81
23166;BME280;11751;42.700;24.170;2022-12-10T14:22:53;92916.56;;;14.14;93.62
23166;BME280;11751;42.700;24.170;2022-12-10T14:25:22;92910.13;;;14.02;94.10
23166;BME280;11751;42.700;24.170;2022-12-10T14:27:49;92901.28;;;13.96;94.53
23166;BME280;11751;42.700;24.170;2022-12-10T14:30:21;92902.53;;;13.93;94.84
23166;BME280;11751;42.700;24.170;2022-12-10T14:32:47;92893.56;;;13.85;94.89
23166;BME280;11751;42.700;24.170;2022-12-10T14:35:18;92887.03;;;13.71;95.55
23166;BME280;11751;42.700;24.170;2022-12-10T14:37:47;92891.91;;;13.71;95.66
23166;BME280;11751;42.700;24.170;2022-12-10T14:40:23;92883.72;;;13.64;95.67
23166;BME280;11751;42.700;24.170;2022-12-10T14:42:54;92882.13;;;13.40;96.67
23166;BME280;11751;42.700;24.170;2022-12-10T14:45:24;92877.72;;;13.37;96.01
23166;BME280;11751;42.700;24.170;2022-12-10T14:47:53;92872.00;;;13.14;96.22
23166;BME280;11751;42.700;24.170;2022-12-10T14:50:18;92874.66;;;13.12;94.57
23166;BME280;11751;42.700;24.170;2022-12-10T14:52:49;92878.47;;;13.16;91.91
23166;BME280;11751;42.700;24.170;2022-12-10T14:55:17;92868.72;;;13.17;91.07
23166;BME280;11751;42.700;24.170;2022-12-10T14:58:04;92863.94;;;13.20;90.75
23166;BME280;11751;42.700;24.170;2022-12-10T15:00:32;92857.09;;;13.11;90.47
23166;BME280;11751;42.700;24.170;2022-12-10T15:03:17;92859.00;;;13.30;90.41
23166;BME280;11751;42.700;24.170;2022-12-10T15:05:54;92856.28;;;13.20;90.55
23166;BME280;11751;42.700;24.170;2022-12-10T15:08:20;92852.50;;;13.27;89.90
23166;BME280;11751;42.700;24.170;2022-12-10T15:10:51;92859.94;;;13.23;89.90